createdAt,value
2019-01-02T00:01:42.104Z,17.33
2019-01-02T00:04:10.670Z,15.10
2019-01-02T00:06:38.862Z,15.23
2019-01-02T00:09:07.377Z,15.27
2019-01-02T00:11:35.570Z,20.97
2019-01-02T00:14:03.796Z,22.83
2019-01-02T00:16:32.042Z,15.27
2019-01-02T00:19:00.531Z,16.40
2019-01-02T00:21:29.028Z,17.87
2019-01-02T00:23:57.276Z,16.20
2019-01-02T00:26:25.797Z,12.10
2019-01-02T00:28:54.003Z,17.13
2019-01-02T00:31:22.489Z,12.70
2019-01-02T00:33:50.784Z,21.30
2019-01-02T00:36:19.386Z,14.20
2019-01-02T00:38:47.582Z,18.83
2019-01-02T00:41:16.002Z,15.50
2019-01-02T00:43:44.202Z,21.57
2019-01-02T00:46:12.657Z,14.63
2019-01-02T00:48:40.864Z,14.73
2019-01-02T00:51:09.080Z,15.90
2019-01-02T00:53:37.277Z,11.20
2019-01-02T00:56:05.502Z,11.40
2019-01-02T00:58:33.715Z,16.87
2019-01-02T01:01:01.912Z,17.03
2019-01-02T01:03:30.143Z,12.73
2019-01-02T01:05:58.621Z,12.57
2019-01-02T01:08:26.827Z,15.10
2019-01-02T01:10:55.455Z,18.23
2019-01-02T01:13:23.670Z,15.00
2019-01-02T01:15:52.056Z,16.27
2019-01-02T01:18:20.275Z,19.30
2019-01-02T01:20:48.852Z,15.33
2019-01-02T01:23:17.060Z,15.13
2019-01-02T01:25:45.546Z,12.67
2019-01-02T01:28:13.769Z,12.67
2019-01-02T01:30:41.999Z,15.87
2019-01-02T01:33:10.380Z,19.30
2019-01-02T01:35:38.600Z,14.30
2019-01-02T01:38:06.784Z,22.87
2019-01-02T01:40:35.385Z,21.10
2019-01-02T01:43:03.570Z,17.50
2019-01-02T01:45:32.160Z,14.27
2019-01-02T01:48:00.382Z,18.73
2019-01-02T01:50:28.576Z,22.50
2019-01-02T01:52:57.082Z,16.10
2019-01-02T01:55:25.310Z,18.83
2019-01-02T01:57:53.889Z,23.10
2019-01-02T02:00:22.118Z,16.70
2019-01-02T02:02:50.311Z,22.73
2019-01-02T02:05:18.812Z,18.90
2019-01-02T02:07:47.059Z,23.57
2019-01-02T02:10:16.282Z,16.17
2019-01-02T02:12:44.467Z,19.50
2019-01-02T02:15:12.697Z,19.23
2019-01-02T02:17:41.387Z,18.73
2019-01-02T02:20:11.540Z,20.60
2019-01-02T02:22:39.743Z,17.77
2019-01-02T02:25:14.078Z,18.80
2019-01-02T02:27:42.308Z,18.77
2019-01-02T02:30:13.607Z,14.67
2019-01-02T02:32:42.665Z,26.73
2019-01-02T02:35:11.159Z,14.03
2019-01-02T02:37:39.366Z,19.30
2019-01-02T02:40:10.643Z,14.83
2019-01-02T02:42:38.863Z,18.17
2019-01-02T02:45:10.194Z,14.47
2019-01-02T02:47:38.666Z,21.27
2019-01-02T02:50:12.387Z,18.80
2019-01-02T02:52:40.585Z,17.67
2019-01-02T02:55:11.346Z,18.37
2019-01-02T02:57:39.547Z,21.03
2019-01-02T03:00:12.887Z,18.80
2019-01-02T03:02:41.103Z,16.50
2019-01-02T03:05:10.969Z,19.37
2019-01-02T03:07:39.550Z,25.00
2019-01-02T03:10:12.962Z,21.50
2019-01-02T03:12:41.596Z,17.27
2019-01-02T03:15:11.465Z,20.60
2019-01-02T03:17:39.659Z,21.97
2019-01-02T03:20:10.428Z,29.00
2019-01-02T03:22:38.921Z,23.67
2019-01-02T03:25:09.470Z,20.43
2019-01-02T03:27:38.141Z,26.17
2019-01-02T03:30:09.979Z,19.50
2019-01-02T03:32:38.584Z,18.40
2019-01-02T03:35:08.419Z,21.20
2019-01-02T03:37:36.633Z,22.70
2019-01-02T03:40:08.102Z,23.13
2019-01-02T03:42:36.317Z,23.30
2019-01-02T03:45:06.914Z,20.13
2019-01-02T03:47:35.116Z,22.80
2019-01-02T03:50:04.294Z,22.57
2019-01-02T03:52:32.514Z,23.63
2019-01-02T03:55:00.772Z,19.23
2019-01-02T03:57:28.988Z,24.50
2019-01-02T03:59:57.186Z,23.93
2019-01-02T04:02:25.401Z,23.07
2019-01-02T04:04:53.668Z,29.70
2019-01-02T04:07:21.895Z,27.17
2019-01-02T04:09:50.105Z,21.97
2019-01-02T04:12:18.320Z,20.53
2019-01-02T04:14:46.514Z,31.10
2019-01-02T04:17:14.728Z,17.80
2019-01-02T04:19:42.913Z,22.80
2019-01-02T04:22:11.141Z,21.60
2019-01-02T04:24:39.339Z,21.43
2019-01-02T04:27:07.532Z,18.00
2019-01-02T04:29:35.748Z,22.60
2019-01-02T04:32:03.947Z,20.97
2019-01-02T04:34:32.162Z,17.27
2019-01-02T04:37:00.385Z,19.63
2019-01-02T04:39:28.580Z,19.80
2019-01-02T04:41:56.804Z,18.63
2019-01-02T04:44:25.027Z,26.07
2019-01-02T04:46:53.242Z,26.70
2019-01-02T04:49:21.450Z,25.13
2019-01-02T04:51:49.649Z,23.50
2019-01-02T04:54:17.881Z,25.47
2019-01-02T04:56:46.103Z,17.07
2019-01-02T04:59:14.324Z,24.33
2019-01-02T05:01:42.521Z,25.37
2019-01-02T05:04:10.732Z,23.23
2019-01-02T05:06:38.922Z,20.47
2019-01-02T05:09:07.621Z,20.37
2019-01-02T05:11:35.800Z,26.73
2019-01-02T05:14:04.032Z,24.27
2019-01-02T05:16:32.238Z,22.80
2019-01-02T05:19:00.458Z,20.17
2019-01-02T05:21:28.696Z,21.23
2019-01-02T05:23:56.902Z,20.67
2019-01-02T05:26:25.085Z,21.77
2019-01-02T05:28:53.297Z,21.80
2019-01-02T05:31:21.495Z,13.40
2019-01-02T05:33:49.702Z,23.47
2019-01-02T05:36:17.903Z,15.13
2019-01-02T05:38:46.138Z,22.70
2019-01-02T05:41:14.322Z,25.87
2019-01-02T05:43:42.532Z,27.00
2019-01-02T05:46:10.728Z,33.77
2019-01-02T05:48:38.942Z,23.93
2019-01-02T05:51:07.187Z,21.40
2019-01-02T05:53:35.354Z,25.20
2019-01-02T05:56:03.552Z,25.07
2019-01-02T05:58:31.760Z,24.90
2019-01-02T06:00:59.967Z,24.37
2019-01-02T06:03:28.173Z,21.83
2019-01-02T06:05:56.396Z,23.47
2019-01-02T06:08:24.634Z,26.77
2019-01-02T06:10:52.842Z,23.13
2019-01-02T06:13:21.024Z,23.37
2019-01-02T06:15:49.242Z,20.47
2019-01-02T06:18:17.473Z,20.73
2019-01-02T06:20:45.669Z,22.50
2019-01-02T06:23:13.898Z,23.07
2019-01-02T06:25:42.096Z,21.70
2019-01-02T06:28:10.316Z,29.40
2019-01-02T06:30:38.563Z,22.03
2019-01-02T06:33:06.813Z,20.87
2019-01-02T06:35:35.037Z,30.80
2019-01-02T06:38:03.256Z,19.43
2019-01-02T06:40:31.479Z,26.70
2019-01-02T06:42:59.766Z,17.30
2019-01-02T06:45:27.983Z,17.90
2019-01-02T06:47:56.212Z,26.60
2019-01-02T06:50:24.403Z,23.17
2019-01-02T06:52:52.622Z,32.73
2019-01-02T06:55:20.842Z,19.57
2019-01-02T06:57:49.023Z,21.57
2019-01-02T07:00:20.502Z,26.77
2019-01-02T07:02:48.718Z,16.63
2019-01-02T07:05:16.930Z,19.87
2019-01-02T07:07:45.126Z,24.57
2019-01-02T07:10:13.347Z,32.30
2019-01-02T07:12:41.542Z,21.60
2019-01-02T07:15:10.344Z,27.00
2019-01-02T07:17:38.565Z,23.17
2019-01-02T07:20:09.858Z,23.97
2019-01-02T07:22:38.075Z,22.90
2019-01-02T07:25:08.289Z,22.23
2019-01-02T07:27:36.491Z,26.53
2019-01-02T07:30:11.045Z,28.67
2019-01-02T07:32:39.300Z,24.87
2019-01-02T07:35:10.780Z,23.13
2019-01-02T07:37:44.899Z,24.47
2019-01-02T07:40:28.514Z,33.50
2019-01-02T07:43:23.762Z,25.67
2019-01-02T07:46:01.204Z,29.83
2019-01-02T07:48:44.483Z,28.27
2019-01-02T07:51:16.049Z,29.90
2019-01-02T07:54:02.879Z,27.60
2019-01-02T07:56:43.177Z,22.07
2019-01-02T07:59:14.654Z,23.23
2019-01-02T08:01:49.055Z,24.63
2019-01-02T08:04:23.380Z,24.27
2019-01-02T08:07:19.203Z,23.30
2019-01-02T08:10:17.214Z,18.43
2019-01-02T08:12:57.585Z,30.27
2019-01-02T08:15:31.929Z,24.17
2019-01-02T08:18:06.074Z,29.97
2019-01-02T08:21:11.008Z,21.73
2019-01-02T08:24:03.588Z,28.60
2019-01-02T08:26:50.325Z,21.07
2019-01-02T08:29:30.711Z,24.23
2019-01-02T08:32:23.304Z,32.50
2019-01-02T08:34:54.807Z,24.70
2019-01-02T08:37:41.239Z,27.07
2019-01-02T08:40:28.821Z,24.53
2019-01-02T08:43:05.857Z,18.97
2019-01-02T08:45:56.642Z,26.00
2019-01-02T08:48:47.551Z,27.37
2019-01-02T08:51:35.319Z,28.13
2019-01-02T08:54:09.645Z,31.23
2019-01-02T08:56:55.983Z,31.10
2019-01-02T08:59:42.479Z,21.97
2019-01-02T09:02:16.613Z,26.63
2019-01-02T09:04:56.963Z,27.50
2019-01-02T09:07:37.173Z,21.77
2019-01-02T09:10:39.179Z,21.93
2019-01-02T09:13:37.808Z,26.40
2019-01-02T09:16:42.389Z,29.07
2019-01-02T09:19:16.655Z,25.23
2019-01-02T09:21:56.996Z,22.17
2019-01-02T09:24:40.324Z,21.73
2019-01-02T09:27:29.224Z,22.70
2019-01-02T09:30:03.690Z,20.00
2019-01-02T09:32:44.421Z,28.93
2019-01-02T09:35:15.883Z,24.90
2019-01-02T09:38:10.022Z,25.50
2019-01-02T09:40:47.604Z,23.50
2019-01-02T09:43:33.931Z,27.13
2019-01-02T09:46:35.928Z,21.23
2019-01-02T09:49:35.263Z,25.90
2019-01-02T09:52:15.775Z,18.40
2019-01-02T09:54:53.016Z,20.40
2019-01-02T09:57:24.456Z,18.93
2019-01-02T09:59:58.608Z,25.70
2019-01-02T10:02:51.943Z,26.17
2019-01-02T10:05:53.161Z,23.90
2019-01-02T10:08:39.785Z,27.13
2019-01-02T10:11:11.283Z,23.37
2019-01-02T10:13:51.457Z,23.80
2019-01-02T10:16:32.063Z,22.17
2019-01-02T10:19:06.535Z,21.27
2019-01-02T10:22:02.331Z,20.63
2019-01-02T10:24:54.583Z,18.70
2019-01-02T10:27:37.197Z,26.83
2019-01-02T10:30:17.595Z,19.50
2019-01-02T10:32:54.563Z,25.47
2019-01-02T10:35:38.021Z,23.40
2019-01-02T10:38:21.669Z,23.43
2019-01-02T10:40:58.853Z,30.77
2019-01-02T10:43:54.373Z,21.80
2019-01-02T10:46:31.299Z,22.53
2019-01-02T10:49:11.422Z,25.13
2019-01-02T10:51:57.667Z,22.13
2019-01-02T10:54:34.873Z,18.73
2019-01-02T10:57:23.107Z,14.73
2019-01-02T11:00:02.959Z,28.40
2019-01-02T11:02:43.154Z,25.53
2019-01-02T11:05:29.585Z,21.23
2019-01-02T11:08:20.417Z,15.93
2019-01-02T11:11:03.582Z,16.10
2019-01-02T11:13:40.401Z,14.03
2019-01-02T11:16:23.675Z,21.87
2019-01-02T11:19:00.697Z,15.07
2019-01-02T11:21:48.619Z,25.57
2019-01-02T11:24:45.709Z,20.80
2019-01-02T11:27:35.067Z,23.83
2019-01-02T11:30:23.233Z,16.57
2019-01-02T11:33:14.487Z,20.10
2019-01-02T11:36:11.607Z,18.90
2019-01-02T11:38:46.015Z,22.07
2019-01-02T11:41:35.491Z,20.00
2019-01-02T11:44:21.400Z,21.63
2019-01-02T11:46:48.369Z,18.87
2019-01-02T11:49:16.567Z,22.27
2019-01-02T11:51:44.802Z,22.57
2019-01-02T11:54:12.977Z,17.63
2019-01-02T11:56:41.159Z,17.17
2019-01-02T11:59:09.435Z,17.13
2019-01-02T12:01:37.636Z,19.80
2019-01-02T12:04:05.831Z,21.23
2019-01-02T12:06:34.111Z,21.50
2019-01-02T12:09:03.588Z,25.20
2019-01-02T12:11:31.767Z,20.00
2019-01-02T12:14:00.017Z,15.30
2019-01-02T12:16:28.243Z,21.27
2019-01-02T12:18:56.459Z,23.77
2019-01-02T12:21:24.676Z,19.40
2019-01-02T12:23:52.896Z,17.10
2019-01-02T12:26:21.089Z,19.07
2019-01-02T12:28:49.305Z,17.17
2019-01-02T12:31:17.512Z,17.13
2019-01-02T12:33:45.706Z,19.37
2019-01-02T12:36:13.919Z,15.93
2019-01-02T12:38:42.113Z,17.57
2019-01-02T12:41:10.349Z,17.97
2019-01-02T12:43:38.538Z,19.50
2019-01-02T12:46:06.731Z,20.53
2019-01-02T12:48:34.933Z,23.97
2019-01-02T12:51:03.138Z,18.87
2019-01-02T12:53:31.353Z,21.57
2019-01-02T12:55:59.622Z,19.43
2019-01-02T12:58:27.850Z,16.70
2019-01-02T13:00:58.453Z,17.83
2019-01-02T13:03:52.545Z,16.73
2019-01-02T13:06:35.891Z,19.57
2019-01-02T13:09:18.785Z,18.37
2019-01-02T13:11:53.243Z,16.27
2019-01-02T13:14:47.586Z,17.83
2019-01-02T13:17:21.975Z,19.03
2019-01-02T13:20:02.515Z,14.70
2019-01-02T13:22:33.992Z,14.03
2019-01-02T13:25:11.435Z,17.43
2019-01-02T13:27:45.564Z,19.80
2019-01-02T13:30:48.861Z,16.57
2019-01-02T13:33:32.167Z,14.70
2019-01-02T13:36:06.568Z,20.47
2019-01-02T13:38:43.837Z,10.80
2019-01-02T13:41:30.260Z,11.83
2019-01-02T13:44:04.383Z,16.97
2019-01-02T13:46:53.490Z,19.43
2019-01-02T13:49:39.909Z,14.30
2019-01-02T13:52:08.126Z,15.37
2019-01-02T13:54:36.354Z,12.20
2019-01-02T13:57:04.553Z,12.57
2019-01-02T13:59:32.767Z,16.37
2019-01-02T14:02:00.966Z,15.50
2019-01-02T14:04:29.261Z,14.40
2019-01-02T14:06:57.533Z,11.77
2019-01-02T14:09:25.810Z,11.43
2019-01-02T14:11:54.009Z,12.83
2019-01-02T14:14:22.218Z,10.37
2019-01-02T14:16:50.412Z,15.87
2019-01-02T14:19:18.622Z,11.63
2019-01-02T14:21:46.855Z,9.47
2019-01-02T14:24:15.059Z,14.50
2019-01-02T14:26:43.268Z,13.67
2019-01-02T14:29:11.492Z,15.27
2019-01-02T14:31:39.689Z,12.27
2019-01-02T14:34:07.913Z,9.17
2019-01-02T14:36:36.107Z,14.90
2019-01-02T14:39:06.567Z,14.67
2019-01-02T14:41:34.765Z,10.07
2019-01-02T14:44:02.994Z,10.97
2019-01-02T14:46:31.185Z,15.50
2019-01-02T14:48:59.401Z,22.40
2019-01-02T14:51:27.613Z,19.10
2019-01-02T14:53:55.809Z,11.90
2019-01-02T14:56:24.016Z,72.77
2019-01-02T14:58:52.235Z,27.13
2019-01-02T15:01:20.421Z,14.27
2019-01-02T15:03:48.652Z,16.40
2019-01-02T15:06:16.851Z,12.90
2019-01-02T15:08:45.105Z,19.10
2019-01-02T15:11:13.480Z,13.57
2019-01-02T15:13:41.757Z,13.80
2019-01-02T15:16:09.949Z,18.23
2019-01-02T15:18:38.171Z,13.30
2019-01-02T15:21:06.350Z,10.70
2019-01-02T15:23:34.565Z,9.53
2019-01-02T15:26:02.795Z,11.67
2019-01-02T15:28:30.978Z,15.07
2019-01-02T15:30:59.184Z,15.27
2019-01-02T15:33:27.385Z,11.27
2019-01-02T15:35:55.604Z,17.43
2019-01-02T15:38:23.805Z,11.50
2019-01-02T15:40:52.009Z,13.10
2019-01-02T15:43:20.233Z,12.63
2019-01-02T15:45:48.459Z,10.80
2019-01-02T15:48:16.656Z,12.90
2019-01-02T15:50:44.886Z,10.00
2019-01-02T15:53:13.091Z,11.30
2019-01-02T15:55:41.274Z,16.57
2019-01-02T15:58:09.518Z,16.00
2019-01-02T16:00:37.721Z,14.83
2019-01-02T16:03:05.929Z,14.30
2019-01-02T16:05:34.143Z,14.50
2019-01-02T16:08:02.354Z,14.47
2019-01-02T16:10:30.551Z,12.40
2019-01-02T16:12:58.765Z,12.33
2019-01-02T16:15:26.955Z,10.37
2019-01-02T16:17:55.198Z,17.67
2019-01-02T16:20:23.530Z,13.83
2019-01-02T16:22:51.731Z,13.87
2019-01-02T16:25:19.929Z,18.53
2019-01-02T16:27:48.169Z,13.40
2019-01-02T16:30:16.394Z,15.50
2019-01-02T16:32:44.624Z,13.20
2019-01-02T16:35:12.849Z,12.97
2019-01-02T16:37:41.140Z,13.00
2019-01-02T16:40:11.074Z,13.17
2019-01-02T16:42:39.305Z,14.37
2019-01-02T16:45:08.240Z,16.87
2019-01-02T16:47:36.452Z,18.87
2019-01-02T16:50:05.409Z,13.07
2019-01-02T16:52:33.616Z,20.57
2019-01-02T16:55:01.883Z,14.60
2019-01-02T16:57:30.002Z,18.33
2019-01-02T16:59:58.239Z,14.57
2019-01-02T17:02:26.430Z,16.33
2019-01-02T17:04:54.692Z,14.30
2019-01-02T17:07:22.944Z,15.17
2019-01-02T17:09:51.157Z,14.83
2019-01-02T17:12:19.377Z,14.77
2019-01-02T17:14:47.608Z,13.77
2019-01-02T17:17:15.821Z,12.27
2019-01-02T17:19:44.057Z,16.00
2019-01-02T17:22:12.267Z,15.43
2019-01-02T17:24:40.475Z,13.73
2019-01-02T17:27:08.669Z,13.27
2019-01-02T17:29:36.905Z,13.87
2019-01-02T17:32:05.105Z,16.97
2019-01-02T17:34:33.294Z,15.47
2019-01-02T17:37:01.522Z,14.37
2019-01-02T17:39:29.725Z,18.97
2019-01-02T17:41:57.946Z,17.87
2019-01-02T17:44:26.144Z,21.23
2019-01-02T17:46:54.354Z,16.80
2019-01-02T17:49:22.628Z,19.30
2019-01-02T17:51:50.809Z,14.10
2019-01-02T17:54:18.994Z,13.33
2019-01-02T17:56:47.246Z,21.30
2019-01-02T17:59:15.449Z,11.90
2019-01-02T18:01:46.114Z,14.83
2019-01-02T18:04:15.585Z,13.00
2019-01-02T18:06:43.917Z,14.10
2019-01-02T18:09:12.151Z,17.57
2019-01-02T18:11:40.356Z,14.80
2019-01-02T18:14:08.599Z,21.90
2019-01-02T18:16:36.803Z,16.20
2019-01-02T18:19:05.011Z,16.70
2019-01-02T18:21:34.018Z,18.57
2019-01-02T18:24:02.257Z,16.43
2019-01-02T18:26:30.526Z,15.13
2019-01-02T18:28:58.745Z,13.40
2019-01-02T18:31:27.024Z,15.77
2019-01-02T18:33:55.311Z,19.33
2019-01-02T18:36:23.536Z,15.83
2019-01-02T18:38:52.501Z,18.53
2019-01-02T18:41:20.764Z,15.07
2019-01-02T18:43:49.026Z,16.60
2019-01-02T18:46:17.254Z,15.30
2019-01-02T18:48:45.545Z,14.40
2019-01-02T18:51:13.823Z,14.37
2019-01-02T18:53:42.139Z,12.83
2019-01-02T18:56:10.447Z,14.53
2019-01-02T18:58:38.716Z,18.53
2019-01-02T19:01:07.713Z,14.73
2019-01-02T19:03:36.073Z,13.57
2019-01-02T19:06:04.338Z,20.10
2019-01-02T19:08:32.685Z,13.90
2019-01-02T19:11:00.992Z,13.53
2019-01-02T19:13:29.277Z,16.80
2019-01-02T19:15:57.547Z,17.63
2019-01-02T19:18:26.438Z,16.13
2019-01-02T19:20:54.707Z,14.97
2019-01-02T19:23:22.976Z,12.30
2019-01-02T19:25:51.282Z,12.40
2019-01-02T19:28:19.560Z,11.77
2019-01-02T19:30:47.835Z,12.17
2019-01-02T19:33:16.231Z,12.10
2019-01-02T19:35:44.572Z,12.27
2019-01-02T19:38:12.876Z,13.53
2019-01-02T19:40:41.185Z,17.97
2019-01-02T19:43:09.520Z,17.93
2019-01-02T19:45:37.813Z,12.90
2019-01-02T19:48:06.139Z,15.57
2019-01-02T19:50:35.292Z,8.57
2019-01-02T19:53:03.568Z,18.83
2019-01-02T19:55:32.704Z,15.57
2019-01-02T19:58:01.639Z,18.50
2019-01-02T20:00:31.208Z,15.03
2019-01-02T20:03:02.082Z,11.90
2019-01-02T20:05:30.324Z,13.37
2019-01-02T20:07:58.840Z,12.70
2019-01-02T20:10:27.238Z,8.40
2019-01-02T20:12:55.523Z,7.00
2019-01-02T20:15:24.566Z,11.73
2019-01-02T20:17:52.971Z,15.83
2019-01-02T20:20:21.275Z,13.53
2019-01-02T20:22:49.642Z,12.73
2019-01-02T20:25:19.751Z,11.17
2019-01-02T20:27:48.310Z,9.87
2019-01-02T20:30:16.585Z,11.77
2019-01-02T20:32:44.933Z,13.20
2019-01-02T20:35:15.226Z,9.33
2019-01-02T20:37:43.543Z,10.87
2019-01-02T20:40:11.861Z,8.33
2019-01-02T20:42:40.145Z,9.13
2019-01-02T20:45:09.415Z,8.03
2019-01-02T20:47:37.770Z,14.27
2019-01-02T20:50:08.666Z,7.93
2019-01-02T20:52:36.953Z,11.80
2019-01-02T20:55:06.638Z,9.70
2019-01-02T20:57:34.914Z,10.27
2019-01-02T21:00:03.247Z,9.73
2019-01-02T21:02:31.661Z,8.10
2019-01-02T21:05:00.958Z,9.10
2019-01-02T21:07:29.246Z,10.97
2019-01-02T21:09:57.574Z,12.40
2019-01-02T21:12:25.843Z,8.83
2019-01-02T21:14:54.126Z,12.53
2019-01-02T21:17:22.449Z,12.33
2019-01-02T21:19:50.829Z,10.10
2019-01-02T21:22:19.092Z,6.23
2019-01-02T21:24:47.405Z,11.93
2019-01-02T21:27:15.670Z,12.93
2019-01-02T21:29:44.029Z,7.13
2019-01-02T21:32:12.352Z,6.77
2019-01-02T21:34:41.649Z,12.73
2019-01-02T21:37:09.996Z,11.77
2019-01-02T21:39:38.292Z,12.33
2019-01-02T21:42:06.548Z,9.37
2019-01-02T21:44:34.869Z,7.43
2019-01-02T21:47:03.709Z,10.07
2019-01-02T21:49:32.004Z,11.43
2019-01-02T21:52:00.308Z,9.33
2019-01-02T21:54:28.629Z,9.23
2019-01-02T21:56:56.933Z,10.90
2019-01-02T21:59:25.190Z,13.07
2019-01-02T22:01:53.470Z,10.93
2019-01-02T22:04:21.765Z,10.57
2019-01-02T22:06:50.072Z,17.37
2019-01-02T22:09:18.592Z,12.40
2019-01-02T22:11:46.918Z,7.60
2019-01-02T22:14:15.250Z,8.97
2019-01-02T22:16:43.499Z,10.07
2019-01-02T22:19:11.762Z,8.93
2019-01-02T22:21:40.060Z,10.20
2019-01-02T22:24:08.334Z,7.33
2019-01-02T22:26:36.627Z,10.17
2019-01-02T22:29:04.975Z,9.60
2019-01-02T22:31:33.280Z,8.17
2019-01-02T22:34:01.558Z,9.40
2019-01-02T22:36:29.841Z,9.27
2019-01-02T22:38:58.118Z,9.40
2019-01-02T22:41:27.658Z,9.27
2019-01-02T22:43:56.042Z,11.87
2019-01-02T22:46:24.275Z,11.30
2019-01-02T22:48:52.540Z,10.47
2019-01-02T22:51:20.808Z,10.07
2019-01-02T22:53:49.039Z,7.40
2019-01-02T22:56:17.263Z,10.07
2019-01-02T22:58:45.508Z,10.67
2019-01-02T23:01:15.348Z,8.03
2019-01-02T23:04:01.700Z,12.00
2019-01-02T23:06:31.642Z,10.77
2019-01-02T23:09:16.441Z,10.03
2019-01-02T23:11:52.165Z,12.13
2019-01-02T23:14:22.028Z,8.50
2019-01-02T23:16:51.864Z,9.20
2019-01-02T23:19:21.725Z,17.20
2019-01-02T23:22:07.398Z,8.13
2019-01-02T23:24:37.224Z,10.03
2019-01-02T23:27:16.041Z,13.83
2019-01-02T23:30:02.206Z,10.03
2019-01-02T23:32:48.142Z,8.57
2019-01-02T23:35:20.409Z,11.50
2019-01-02T23:37:59.535Z,12.93
2019-01-02T23:40:32.423Z,9.17
2019-01-02T23:43:08.223Z,10.67
2019-01-02T23:45:41.087Z,9.53
2019-01-02T23:48:27.204Z,9.70
2019-01-02T23:50:57.060Z,9.50
2019-01-02T23:53:26.881Z,10.97
2019-01-02T23:56:12.822Z,11.57
2019-01-02T23:58:48.249Z,11.50
